sensor_id;sensor_type;location;lat;lon;timestamp;P1;durP1;ratioP1;P2;durP2;ratioP2
4468;SDS011;2247;42.666;23.292;2024-01-30T00:01:53;5.90;;;3.77;;
4468;SDS011;2247;42.666;23.292;2024-01-30T00:04:20;6.23;;;3.83;;
4468;SDS011;2247;42.666;23.292;2024-01-30T00:06:50;4.70;;;3.33;;
4468;SDS011;2247;42.666;23.292;2024-01-30T00:09:18;5.33;;;4.00;;
4468;SDS011;2247;42.666;23.292;2024-01-30T00:11:45;5.07;;;3.47;;
4468;SDS011;2247;42.666;23.292;2024-01-30T00:14:12;6.33;;;3.43;;
4468;SDS011;2247;42.666;23.292;2024-01-30T00:16:39;4.50;;;3.67;;
4468;SDS011;2247;42.666;23.292;2024-01-30T00:19:06;4.97;;;3.53;;
4468;SDS011;2247;42.666;23.292;2024-01-30T00:21:33;6.50;;;3.57;;
4468;SDS011;2247;42.666;23.292;2024-01-30T00:24:02;8.20;;;3.40;;
4468;SDS011;2247;42.666;23.292;2024-01-30T00:26:29;4.00;;;3.30;;
4468;SDS011;2247;42.666;23.292;2024-01-30T00:28:56;4.80;;;3.53;;
4468;SDS011;2247;42.666;23.292;2024-01-30T00:31:24;4.60;;;3.47;;
4468;SDS011;2247;42.666;23.292;2024-01-30T00:33:51;6.00;;;3.60;;
4468;SDS011;2247;42.666;23.292;2024-01-30T00:36:18;5.37;;;3.43;;
4468;SDS011;2247;42.666;23.292;2024-01-30T00:38:45;5.03;;;3.10;;
4468;SDS011;2247;42.666;23.292;2024-01-30T00:41:14;4.90;;;3.63;;
4468;SDS011;2247;42.666;23.292;2024-01-30T00:43:44;4.10;;;3.30;;
4468;SDS011;2247;42.666;23.292;2024-01-30T00:46:11;5.60;;;3.87;;
4468;SDS011;2247;42.666;23.292;2024-01-30T00:48:38;5.73;;;3.80;;
4468;SDS011;2247;42.666;23.292;2024-01-30T00:51:05;4.53;;;3.60;;
4468;SDS011;2247;42.666;23.292;2024-01-30T00:53:32;5.23;;;3.60;;
4468;SDS011;2247;42.666;23.292;2024-01-30T00:55:59;5.37;;;3.57;;
4468;SDS011;2247;42.666;23.292;2024-01-30T00:58:27;7.30;;;3.87;;
4468;SDS011;2247;42.666;23.292;2024-01-30T01:00:54;5.93;;;4.00;;
4468;SDS011;2247;42.666;23.292;2024-01-30T01:03:21;5.80;;;3.97;;
4468;SDS011;2247;42.666;23.292;2024-01-30T01:05:48;5.67;;;3.93;;
4468;SDS011;2247;42.666;23.292;2024-01-30T01:08:15;4.60;;;3.30;;
4468;SDS011;2247;42.666;23.292;2024-01-30T01:10:43;4.47;;;3.50;;
4468;SDS011;2247;42.666;23.292;2024-01-30T01:13:10;5.67;;;4.10;;
4468;SDS011;2247;42.666;23.292;2024-01-30T01:15:38;4.73;;;3.70;;
4468;SDS011;2247;42.666;23.292;2024-01-30T01:18:05;5.10;;;3.60;;
4468;SDS011;2247;42.666;23.292;2024-01-30T01:20:32;6.73;;;3.97;;
4468;SDS011;2247;42.666;23.292;2024-01-30T01:22:59;5.67;;;3.77;;
4468;SDS011;2247;42.666;23.292;2024-01-30T01:25:26;5.20;;;3.70;;
4468;SDS011;2247;42.666;23.292;2024-01-30T01:27:53;6.10;;;4.07;;
4468;SDS011;2247;42.666;23.292;2024-01-30T01:30:20;4.23;;;3.30;;
4468;SDS011;2247;42.666;23.292;2024-01-30T01:32:49;3.93;;;3.07;;
4468;SDS011;2247;42.666;23.292;2024-01-30T01:35:20;4.60;;;3.30;;
4468;SDS011;2247;42.666;23.292;2024-01-30T01:37:48;5.97;;;3.60;;
4468;SDS011;2247;42.666;23.292;2024-01-30T01:40:20;5.27;;;3.53;;
4468;SDS011;2247;42.666;23.292;2024-01-30T01:42:49;3.87;;;3.17;;
4468;SDS011;2247;42.666;23.292;2024-01-30T01:45:16;3.40;;;3.00;;
4468;SDS011;2247;42.666;23.292;2024-01-30T01:47:43;4.90;;;3.37;;
4468;SDS011;2247;42.666;23.292;2024-01-30T01:50:13;5.20;;;3.50;;
4468;SDS011;2247;42.666;23.292;2024-01-30T01:52:43;4.93;;;3.50;;
4468;SDS011;2247;42.666;23.292;2024-01-30T01:55:11;6.37;;;4.03;;
4468;SDS011;2247;42.666;23.292;2024-01-30T01:57:39;5.37;;;3.60;;
4468;SDS011;2247;42.666;23.292;2024-01-30T02:00:06;4.67;;;3.50;;
4468;SDS011;2247;42.666;23.292;2024-01-30T02:02:35;6.00;;;3.70;;
4468;SDS011;2247;42.666;23.292;2024-01-30T02:05:03;6.47;;;4.20;;
4468;SDS011;2247;42.666;23.292;2024-01-30T02:07:31;4.87;;;3.73;;
4468;SDS011;2247;42.666;23.292;2024-01-30T02:09:58;6.87;;;4.03;;
4468;SDS011;2247;42.666;23.292;2024-01-30T02:12:25;9.37;;;4.10;;
4468;SDS011;2247;42.666;23.292;2024-01-30T02:14:52;5.00;;;3.40;;
4468;SDS011;2247;42.666;23.292;2024-01-30T02:17:20;4.33;;;3.63;;
4468;SDS011;2247;42.666;23.292;2024-01-30T02:19:48;4.57;;;3.60;;
4468;SDS011;2247;42.666;23.292;2024-01-30T02:22:16;4.77;;;3.43;;
4468;SDS011;2247;42.666;23.292;2024-01-30T02:24:44;5.40;;;3.73;;
4468;SDS011;2247;42.666;23.292;2024-01-30T02:27:11;5.73;;;4.00;;
4468;SDS011;2247;42.666;23.292;2024-01-30T02:29:38;6.40;;;4.23;;
4468;SDS011;2247;42.666;23.292;2024-01-30T02:32:05;8.07;;;3.40;;
4468;SDS011;2247;42.666;23.292;2024-01-30T02:34:32;4.90;;;3.73;;
4468;SDS011;2247;42.666;23.292;2024-01-30T02:36:59;6.87;;;3.67;;
4468;SDS011;2247;42.666;23.292;2024-01-30T02:39:28;5.50;;;4.03;;
4468;SDS011;2247;42.666;23.292;2024-01-30T02:41:55;4.67;;;3.70;;
4468;SDS011;2247;42.666;23.292;2024-01-30T02:44:22;3.70;;;3.20;;
4468;SDS011;2247;42.666;23.292;2024-01-30T02:46:49;3.93;;;3.27;;
4468;SDS011;2247;42.666;23.292;2024-01-30T02:49:16;4.37;;;3.20;;
4468;SDS011;2247;42.666;23.292;2024-01-30T02:51:43;6.73;;;3.40;;
4468;SDS011;2247;42.666;23.292;2024-01-30T02:54:10;3.83;;;3.03;;
4468;SDS011;2247;42.666;23.292;2024-01-30T02:56:39;3.97;;;3.20;;
4468;SDS011;2247;42.666;23.292;2024-01-30T02:59:06;5.33;;;3.50;;
4468;SDS011;2247;42.666;23.292;2024-01-30T03:01:32;3.80;;;3.30;;
4468;SDS011;2247;42.666;23.292;2024-01-30T03:03:59;5.70;;;3.60;;
4468;SDS011;2247;42.666;23.292;2024-01-30T03:06:27;4.87;;;3.33;;
4468;SDS011;2247;42.666;23.292;2024-01-30T03:08:53;4.33;;;3.20;;
4468;SDS011;2247;42.666;23.292;2024-01-30T03:11:20;4.03;;;2.97;;
4468;SDS011;2247;42.666;23.292;2024-01-30T03:13:49;6.63;;;3.43;;
4468;SDS011;2247;42.666;23.292;2024-01-30T03:16:16;3.63;;;3.00;;
4468;SDS011;2247;42.666;23.292;2024-01-30T03:18:43;4.00;;;3.03;;
4468;SDS011;2247;42.666;23.292;2024-01-30T03:21:09;3.40;;;2.63;;
4468;SDS011;2247;42.666;23.292;2024-01-30T03:23:36;4.30;;;3.10;;
4468;SDS011;2247;42.666;23.292;2024-01-30T03:26:04;3.53;;;3.07;;
4468;SDS011;2247;42.666;23.292;2024-01-30T03:28:31;4.03;;;2.97;;
4468;SDS011;2247;42.666;23.292;2024-01-30T03:31:00;3.30;;;2.70;;
4468;SDS011;2247;42.666;23.292;2024-01-30T03:33:27;5.60;;;2.80;;
4468;SDS011;2247;42.666;23.292;2024-01-30T03:35:54;4.10;;;2.87;;
4468;SDS011;2247;42.666;23.292;2024-01-30T03:38:21;2.87;;;2.50;;
4468;SDS011;2247;42.666;23.292;2024-01-30T03:40:48;3.53;;;2.67;;
4468;SDS011;2247;42.666;23.292;2024-01-30T03:43:15;3.47;;;2.50;;
4468;SDS011;2247;42.666;23.292;2024-01-30T03:45:42;4.57;;;3.00;;
4468;SDS011;2247;42.666;23.292;2024-01-30T03:48:10;4.57;;;2.70;;
4468;SDS011;2247;42.666;23.292;2024-01-30T03:50:37;3.80;;;2.97;;
4468;SDS011;2247;42.666;23.292;2024-01-30T03:53:04;3.50;;;2.50;;
4468;SDS011;2247;42.666;23.292;2024-01-30T03:55:31;2.70;;;2.50;;
4468;SDS011;2247;42.666;23.292;2024-01-30T03:57:58;2.80;;;2.37;;
4468;SDS011;2247;42.666;23.292;2024-01-30T04:00:25;2.60;;;2.40;;
4468;SDS011;2247;42.666;23.292;2024-01-30T04:02:52;2.70;;;2.43;;
4468;SDS011;2247;42.666;23.292;2024-01-30T04:05:20;2.10;;;2.00;;
4468;SDS011;2247;42.666;23.292;2024-01-30T04:07:47;2.40;;;2.10;;
4468;SDS011;2247;42.666;23.292;2024-01-30T04:10:14;4.53;;;2.30;;
4468;SDS011;2247;42.666;23.292;2024-01-30T04:12:41;3.30;;;2.70;;
4468;SDS011;2247;42.666;23.292;2024-01-30T04:15:08;2.70;;;2.30;;
4468;SDS011;2247;42.666;23.292;2024-01-30T04:17:35;1.90;;;1.80;;
4468;SDS011;2247;42.666;23.292;2024-01-30T04:20:03;2.53;;;2.20;;
4468;SDS011;2247;42.666;23.292;2024-01-30T04:22:32;2.60;;;2.40;;
4468;SDS011;2247;42.666;23.292;2024-01-30T04:24:59;2.00;;;1.80;;
4468;SDS011;2247;42.666;23.292;2024-01-30T04:27:26;3.40;;;2.57;;
4468;SDS011;2247;42.666;23.292;2024-01-30T04:29:53;3.37;;;2.33;;
4468;SDS011;2247;42.666;23.292;2024-01-30T04:32:20;2.90;;;2.20;;
4468;SDS011;2247;42.666;23.292;2024-01-30T04:34:47;7.87;;;2.97;;
4468;SDS011;2247;42.666;23.292;2024-01-30T04:37:15;3.60;;;2.70;;
4468;SDS011;2247;42.666;23.292;2024-01-30T04:39:44;5.03;;;2.87;;
4468;SDS011;2247;42.666;23.292;2024-01-30T04:42:11;2.50;;;2.30;;
4468;SDS011;2247;42.666;23.292;2024-01-30T04:44:38;2.80;;;2.53;;
4468;SDS011;2247;42.666;23.292;2024-01-30T04:47:05;5.83;;;2.60;;
4468;SDS011;2247;42.666;23.292;2024-01-30T04:49:34;2.60;;;2.40;;
4468;SDS011;2247;42.666;23.292;2024-01-30T04:52:01;5.90;;;2.83;;
4468;SDS011;2247;42.666;23.292;2024-01-30T04:54:28;3.30;;;2.70;;
4468;SDS011;2247;42.666;23.292;2024-01-30T04:56:57;4.07;;;3.17;;
4468;SDS011;2247;42.666;23.292;2024-01-30T04:59:24;3.30;;;2.83;;
4468;SDS011;2247;42.666;23.292;2024-01-30T05:01:52;4.33;;;2.97;;
4468;SDS011;2247;42.666;23.292;2024-01-30T05:04:19;3.23;;;2.60;;
4468;SDS011;2247;42.666;23.292;2024-01-30T05:06:47;3.07;;;2.50;;
4468;SDS011;2247;42.666;23.292;2024-01-30T05:09:14;6.30;;;3.70;;
4468;SDS011;2247;42.666;23.292;2024-01-30T05:11:41;4.00;;;2.97;;
4468;SDS011;2247;42.666;23.292;2024-01-30T05:14:10;5.93;;;2.80;;
4468;SDS011;2247;42.666;23.292;2024-01-30T05:16:40;6.17;;;3.23;;
4468;SDS011;2247;42.666;23.292;2024-01-30T05:19:08;3.77;;;3.00;;
4468;SDS011;2247;42.666;23.292;2024-01-30T05:21:36;5.70;;;2.93;;
4468;SDS011;2247;42.666;23.292;2024-01-30T05:24:03;4.93;;;3.13;;
4468;SDS011;2247;42.666;23.292;2024-01-30T05:26:30;7.13;;;3.07;;
4468;SDS011;2247;42.666;23.292;2024-01-30T05:28:58;5.60;;;2.70;;
4468;SDS011;2247;42.666;23.292;2024-01-30T05:31:41;4.63;;;3.07;;
4468;SDS011;2247;42.666;23.292;2024-01-30T05:34:20;3.00;;;2.63;;
4468;SDS011;2247;42.666;23.292;2024-01-30T05:39:40;3.17;;;2.80;;
4468;SDS011;2247;42.666;23.292;2024-01-30T05:42:29;3.80;;;2.73;;
4468;SDS011;2247;42.666;23.292;2024-01-30T05:44:59;5.00;;;3.17;;
4468;SDS011;2247;42.666;23.292;2024-01-30T05:47:29;5.30;;;3.13;;
4468;SDS011;2247;42.666;23.292;2024-01-30T05:49:57;4.57;;;2.90;;
4468;SDS011;2247;42.666;23.292;2024-01-30T05:52:25;4.17;;;3.20;;
4468;SDS011;2247;42.666;23.292;2024-01-30T05:54:53;5.77;;;3.50;;
4468;SDS011;2247;42.666;23.292;2024-01-30T05:57:20;6.23;;;3.27;;
4468;SDS011;2247;42.666;23.292;2024-01-30T05:59:53;5.53;;;3.60;;
4468;SDS011;2247;42.666;23.292;2024-01-30T06:02:20;3.93;;;2.90;;
4468;SDS011;2247;42.666;23.292;2024-01-30T06:04:49;7.37;;;3.10;;
4468;SDS011;2247;42.666;23.292;2024-01-30T06:07:16;8.53;;;2.93;;
4468;SDS011;2247;42.666;23.292;2024-01-30T06:09:43;17.30;;;8.23;;
4468;SDS011;2247;42.666;23.292;2024-01-30T06:12:11;7.07;;;3.40;;
4468;SDS011;2247;42.666;23.292;2024-01-30T06:14:38;5.40;;;3.03;;
4468;SDS011;2247;42.666;23.292;2024-01-30T06:17:07;21.87;;;3.70;;
4468;SDS011;2247;42.666;23.292;2024-01-30T06:19:34;4.70;;;3.20;;
4468;SDS011;2247;42.666;23.292;2024-01-30T06:22:02;4.93;;;3.33;;
4468;SDS011;2247;42.666;23.292;2024-01-30T06:24:30;8.90;;;3.33;;
4468;SDS011;2247;42.666;23.292;2024-01-30T06:26:57;13.37;;;3.93;;
4468;SDS011;2247;42.666;23.292;2024-01-30T06:29:24;9.17;;;3.70;;
4468;SDS011;2247;42.666;23.292;2024-01-30T06:31:51;11.63;;;4.70;;
4468;SDS011;2247;42.666;23.292;2024-01-30T06:34:19;10.73;;;4.37;;
4468;SDS011;2247;42.666;23.292;2024-01-30T06:36:46;11.70;;;3.73;;
4468;SDS011;2247;42.666;23.292;2024-01-30T06:39:14;6.13;;;4.00;;
4468;SDS011;2247;42.666;23.292;2024-01-30T06:41:41;5.97;;;4.60;;
4468;SDS011;2247;42.666;23.292;2024-01-30T06:44:08;7.57;;;3.90;;
4468;SDS011;2247;42.666;23.292;2024-01-30T06:46:35;15.93;;;4.40;;
4468;SDS011;2247;42.666;23.292;2024-01-30T06:49:03;20.33;;;5.90;;
4468;SDS011;2247;42.666;23.292;2024-01-30T06:51:30;14.10;;;4.17;;
4468;SDS011;2247;42.666;23.292;2024-01-30T06:53:57;11.90;;;3.73;;
4468;SDS011;2247;42.666;23.292;2024-01-30T06:56:26;8.67;;;3.80;;
4468;SDS011;2247;42.666;23.292;2024-01-30T06:58:53;5.67;;;3.93;;
4468;SDS011;2247;42.666;23.292;2024-01-30T07:01:20;15.00;;;4.30;;
4468;SDS011;2247;42.666;23.292;2024-01-30T07:03:47;5.27;;;3.40;;
4468;SDS011;2247;42.666;23.292;2024-01-30T07:06:15;5.53;;;3.80;;
4468;SDS011;2247;42.666;23.292;2024-01-30T07:08:42;5.60;;;3.70;;
4468;SDS011;2247;42.666;23.292;2024-01-30T07:11:09;5.40;;;3.70;;
4468;SDS011;2247;42.666;23.292;2024-01-30T07:13:39;11.43;;;2.97;;
4468;SDS011;2247;42.666;23.292;2024-01-30T07:16:06;4.10;;;3.00;;
4468;SDS011;2247;42.666;23.292;2024-01-30T07:18:33;3.90;;;3.00;;
4468;SDS011;2247;42.666;23.292;2024-01-30T07:21:00;5.90;;;3.23;;
4468;SDS011;2247;42.666;23.292;2024-01-30T07:23:27;2.60;;;2.40;;
4468;SDS011;2247;42.666;23.292;2024-01-30T07:25:55;2.70;;;1.97;;
4468;SDS011;2247;42.666;23.292;2024-01-30T07:28:22;2.70;;;2.30;;
4468;SDS011;2247;42.666;23.292;2024-01-30T07:30:51;3.03;;;2.50;;
4468;SDS011;2247;42.666;23.292;2024-01-30T07:33:18;4.90;;;2.00;;
4468;SDS011;2247;42.666;23.292;2024-01-30T07:35:45;4.00;;;2.50;;
4468;SDS011;2247;42.666;23.292;2024-01-30T07:38:12;2.80;;;2.07;;
4468;SDS011;2247;42.666;23.292;2024-01-30T07:40:39;2.70;;;2.37;;
4468;SDS011;2247;42.666;23.292;2024-01-30T07:43:06;2.03;;;1.83;;
4468;SDS011;2247;42.666;23.292;2024-01-30T07:45:33;8.70;;;2.73;;
4468;SDS011;2247;42.666;23.292;2024-01-30T07:48:01;2.40;;;2.00;;
4468;SDS011;2247;42.666;23.292;2024-01-30T07:50:28;2.30;;;2.03;;
4468;SDS011;2247;42.666;23.292;2024-01-30T07:52:55;3.50;;;1.97;;
4468;SDS011;2247;42.666;23.292;2024-01-30T07:55:23;4.50;;;2.30;;
4468;SDS011;2247;42.666;23.292;2024-01-30T07:57:52;8.30;;;2.30;;
4468;SDS011;2247;42.666;23.292;2024-01-30T08:00:20;2.93;;;2.20;;
4468;SDS011;2247;42.666;23.292;2024-01-30T08:02:47;5.20;;;2.70;;
4468;SDS011;2247;42.666;23.292;2024-01-30T08:05:16;3.10;;;2.50;;
4468;SDS011;2247;42.666;23.292;2024-01-30T08:07:42;3.50;;;2.63;;
4468;SDS011;2247;42.666;23.292;2024-01-30T08:10:11;4.30;;;1.87;;
4468;SDS011;2247;42.666;23.292;2024-01-30T08:12:38;2.60;;;2.23;;
4468;SDS011;2247;42.666;23.292;2024-01-30T08:15:06;3.43;;;2.30;;
4468;SDS011;2247;42.666;23.292;2024-01-30T08:17:33;2.43;;;2.23;;
4468;SDS011;2247;42.666;23.292;2024-01-30T08:20:00;3.70;;;2.50;;
4468;SDS011;2247;42.666;23.292;2024-01-30T08:22:31;4.90;;;2.70;;
4468;SDS011;2247;42.666;23.292;2024-01-30T08:24:58;4.47;;;2.80;;
4468;SDS011;2247;42.666;23.292;2024-01-30T08:27:25;4.70;;;2.73;;
4468;SDS011;2247;42.666;23.292;2024-01-30T08:29:52;3.77;;;2.80;;
4468;SDS011;2247;42.666;23.292;2024-01-30T08:32:19;3.60;;;2.27;;
4468;SDS011;2247;42.666;23.292;2024-01-30T08:34:46;2.93;;;2.63;;
4468;SDS011;2247;42.666;23.292;2024-01-30T08:37:13;3.87;;;2.67;;
4468;SDS011;2247;42.666;23.292;2024-01-30T08:39:43;4.00;;;2.93;;
4468;SDS011;2247;42.666;23.292;2024-01-30T08:42:10;4.57;;;2.87;;
4468;SDS011;2247;42.666;23.292;2024-01-30T08:44:37;3.77;;;2.77;;
4468;SDS011;2247;42.666;23.292;2024-01-30T08:47:04;4.10;;;3.07;;
4468;SDS011;2247;42.666;23.292;2024-01-30T08:49:31;3.90;;;2.60;;
4468;SDS011;2247;42.666;23.292;2024-01-30T08:51:58;5.23;;;2.73;;
4468;SDS011;2247;42.666;23.292;2024-01-30T08:54:25;3.33;;;2.50;;
4468;SDS011;2247;42.666;23.292;2024-01-30T08:56:53;2.87;;;2.57;;
4468;SDS011;2247;42.666;23.292;2024-01-30T08:59:21;4.90;;;3.00;;
4468;SDS011;2247;42.666;23.292;2024-01-30T09:01:48;3.60;;;2.83;;
4468;SDS011;2247;42.666;23.292;2024-01-30T09:04:18;4.10;;;3.30;;
4468;SDS011;2247;42.666;23.292;2024-01-30T09:06:45;4.67;;;3.13;;
4468;SDS011;2247;42.666;23.292;2024-01-30T09:09:12;6.40;;;3.60;;
4468;SDS011;2247;42.666;23.292;2024-01-30T09:11:39;10.63;;;4.40;;
4468;SDS011;2247;42.666;23.292;2024-01-30T09:14:08;5.50;;;3.80;;
4468;SDS011;2247;42.666;23.292;2024-01-30T09:16:35;6.57;;;3.97;;
4468;SDS011;2247;42.666;23.292;2024-01-30T09:19:02;8.83;;;3.60;;
4468;SDS011;2247;42.666;23.292;2024-01-30T09:21:29;5.90;;;4.00;;
4468;SDS011;2247;42.666;23.292;2024-01-30T09:24:01;4.93;;;3.33;;
4468;SDS011;2247;42.666;23.292;2024-01-30T09:26:28;5.07;;;3.03;;
4468;SDS011;2247;42.666;23.292;2024-01-30T09:28:55;6.63;;;3.40;;
4468;SDS011;2247;42.666;23.292;2024-01-30T09:31:23;6.60;;;3.90;;
4468;SDS011;2247;42.666;23.292;2024-01-30T09:33:50;8.20;;;4.50;;
4468;SDS011;2247;42.666;23.292;2024-01-30T09:36:19;5.13;;;3.33;;
4468;SDS011;2247;42.666;23.292;2024-01-30T09:38:46;5.27;;;3.77;;
4468;SDS011;2247;42.666;23.292;2024-01-30T09:41:13;4.57;;;2.90;;
4468;SDS011;2247;42.666;23.292;2024-01-30T09:43:41;4.43;;;3.13;;
4468;SDS011;2247;42.666;23.292;2024-01-30T09:46:14;11.20;;;3.30;;
4468;SDS011;2247;42.666;23.292;2024-01-30T09:48:46;7.10;;;2.90;;
4468;SDS011;2247;42.666;23.292;2024-01-30T09:51:15;3.33;;;2.80;;
4468;SDS011;2247;42.666;23.292;2024-01-30T09:53:43;3.77;;;2.80;;
4468;SDS011;2247;42.666;23.292;2024-01-30T09:56:10;4.60;;;2.83;;
4468;SDS011;2247;42.666;23.292;2024-01-30T09:58:38;2.90;;;2.60;;
4468;SDS011;2247;42.666;23.292;2024-01-30T10:01:06;3.47;;;2.80;;
4468;SDS011;2247;42.666;23.292;2024-01-30T10:03:33;5.97;;;3.10;;
4468;SDS011;2247;42.666;23.292;2024-01-30T10:06:01;5.23;;;3.30;;
4468;SDS011;2247;42.666;23.292;2024-01-30T10:08:28;3.40;;;2.63;;
4468;SDS011;2247;42.666;23.292;2024-01-30T10:10:56;5.77;;;3.00;;
4468;SDS011;2247;42.666;23.292;2024-01-30T10:13:23;3.03;;;2.47;;
4468;SDS011;2247;42.666;23.292;2024-01-30T10:15:50;4.50;;;3.00;;
4468;SDS011;2247;42.666;23.292;2024-01-30T10:18:17;6.93;;;3.10;;
4468;SDS011;2247;42.666;23.292;2024-01-30T10:20:44;4.57;;;3.27;;
4468;SDS011;2247;42.666;23.292;2024-01-30T10:23:13;4.97;;;3.40;;
4468;SDS011;2247;42.666;23.292;2024-01-30T10:25:40;4.50;;;2.97;;
4468;SDS011;2247;42.666;23.292;2024-01-30T10:28:08;7.40;;;3.30;;
4468;SDS011;2247;42.666;23.292;2024-01-30T10:30:34;5.90;;;3.37;;
4468;SDS011;2247;42.666;23.292;2024-01-30T10:33:01;4.53;;;2.80;;
4468;SDS011;2247;42.666;23.292;2024-01-30T10:35:28;5.43;;;2.40;;
4468;SDS011;2247;42.666;23.292;2024-01-30T10:37:56;6.07;;;3.13;;
4468;SDS011;2247;42.666;23.292;2024-01-30T10:40:26;4.40;;;3.13;;
4468;SDS011;2247;42.666;23.292;2024-01-30T10:42:55;4.30;;;2.47;;
4468;SDS011;2247;42.666;23.292;2024-01-30T10:45:22;4.10;;;2.87;;
4468;SDS011;2247;42.666;23.292;2024-01-30T10:47:49;2.70;;;2.40;;
4468;SDS011;2247;42.666;23.292;2024-01-30T10:50:19;4.50;;;3.17;;
4468;SDS011;2247;42.666;23.292;2024-01-30T10:52:47;4.43;;;3.03;;
4468;SDS011;2247;42.666;23.292;2024-01-30T10:55:15;4.80;;;3.10;;
4468;SDS011;2247;42.666;23.292;2024-01-30T10:57:45;5.70;;;3.40;;
4468;SDS011;2247;42.666;23.292;2024-01-30T11:00:13;4.73;;;3.50;;
4468;SDS011;2247;42.666;23.292;2024-01-30T11:02:42;4.43;;;3.53;;
4468;SDS011;2247;42.666;23.292;2024-01-30T11:05:12;4.17;;;3.07;;
4468;SDS011;2247;42.666;23.292;2024-01-30T11:07:40;4.37;;;3.00;;
4468;SDS011;2247;42.666;23.292;2024-01-30T11:10:07;3.20;;;2.70;;
4468;SDS011;2247;42.666;23.292;2024-01-30T11:12:38;3.73;;;2.90;;
4468;SDS011;2247;42.666;23.292;2024-01-30T11:15:10;4.37;;;2.70;;
4468;SDS011;2247;42.666;23.292;2024-01-30T11:17:42;4.07;;;2.40;;
4468;SDS011;2247;42.666;23.292;2024-01-30T11:20:09;2.93;;;2.63;;
4468;SDS011;2247;42.666;23.292;2024-01-30T11:22:40;2.93;;;2.70;;
4468;SDS011;2247;42.666;23.292;2024-01-30T11:25:11;2.90;;;2.60;;
4468;SDS011;2247;42.666;23.292;2024-01-30T11:27:38;3.77;;;2.73;;
4468;SDS011;2247;42.666;23.292;2024-01-30T11:30:06;3.93;;;2.50;;
4468;SDS011;2247;42.666;23.292;2024-01-30T11:32:35;3.40;;;2.50;;
4468;SDS011;2247;42.666;23.292;2024-01-30T11:35:03;3.63;;;2.90;;
4468;SDS011;2247;42.666;23.292;2024-01-30T11:37:32;6.10;;;2.63;;
4468;SDS011;2247;42.666;23.292;2024-01-30T11:40:03;4.13;;;2.93;;
4468;SDS011;2247;42.666;23.292;2024-01-30T11:42:31;4.00;;;2.70;;
4468;SDS011;2247;42.666;23.292;2024-01-30T11:45:00;3.57;;;2.60;;
4468;SDS011;2247;42.666;23.292;2024-01-30T11:47:28;3.80;;;3.00;;
4468;SDS011;2247;42.666;23.292;2024-01-30T11:49:56;3.10;;;2.47;;
4468;SDS011;2247;42.666;23.292;2024-01-30T11:52:24;10.10;;;3.07;;
4468;SDS011;2247;42.666;23.292;2024-01-30T11:54:51;7.23;;;2.63;;
4468;SDS011;2247;42.666;23.292;2024-01-30T11:57:18;3.30;;;2.80;;
4468;SDS011;2247;42.666;23.292;2024-01-30T11:59:45;3.10;;;2.77;;
4468;SDS011;2247;42.666;23.292;2024-01-30T12:02:15;3.90;;;2.87;;
4468;SDS011;2247;42.666;23.292;2024-01-30T12:04:43;3.40;;;2.47;;
4468;SDS011;2247;42.666;23.292;2024-01-30T12:07:11;3.80;;;3.00;;
4468;SDS011;2247;42.666;23.292;2024-01-30T12:09:41;4.00;;;3.07;;
4468;SDS011;2247;42.666;23.292;2024-01-30T12:12:09;3.10;;;2.50;;
4468;SDS011;2247;42.666;23.292;2024-01-30T12:14:38;5.57;;;2.87;;
4468;SDS011;2247;42.666;23.292;2024-01-30T12:17:05;3.80;;;3.07;;
4468;SDS011;2247;42.666;23.292;2024-01-30T12:19:36;4.97;;;3.13;;
4468;SDS011;2247;42.666;23.292;2024-01-30T12:22:05;3.70;;;2.80;;
4468;SDS011;2247;42.666;23.292;2024-01-30T12:24:34;9.03;;;3.10;;
4468;SDS011;2247;42.666;23.292;2024-01-30T12:27:01;8.00;;;2.70;;
4468;SDS011;2247;42.666;23.292;2024-01-30T12:29:31;4.37;;;2.80;;
4468;SDS011;2247;42.666;23.292;2024-01-30T12:31:59;3.30;;;2.90;;
4468;SDS011;2247;42.666;23.292;2024-01-30T12:34:26;4.10;;;3.30;;
4468;SDS011;2247;42.666;23.292;2024-01-30T12:36:53;4.00;;;3.30;;
4468;SDS011;2247;42.666;23.292;2024-01-30T12:39:20;4.53;;;3.40;;
4468;SDS011;2247;42.666;23.292;2024-01-30T12:41:49;4.57;;;3.10;;
4468;SDS011;2247;42.666;23.292;2024-01-30T12:44:17;4.87;;;3.13;;
4468;SDS011;2247;42.666;23.292;2024-01-30T12:46:44;5.13;;;3.30;;
4468;SDS011;2247;42.666;23.292;2024-01-30T12:49:13;6.80;;;3.30;;
4468;SDS011;2247;42.666;23.292;2024-01-30T12:51:41;10.07;;;3.20;;
4468;SDS011;2247;42.666;23.292;2024-01-30T12:54:08;4.30;;;3.10;;
4468;SDS011;2247;42.666;23.292;2024-01-30T12:56:35;4.10;;;3.30;;
4468;SDS011;2247;42.666;23.292;2024-01-30T12:59:03;3.10;;;2.53;;
4468;SDS011;2247;42.666;23.292;2024-01-30T13:01:30;4.70;;;3.80;;
4468;SDS011;2247;42.666;23.292;2024-01-30T13:03:57;3.63;;;3.00;;
4468;SDS011;2247;42.666;23.292;2024-01-30T13:06:24;5.03;;;3.00;;
4468;SDS011;2247;42.666;23.292;2024-01-30T13:08:51;4.80;;;3.30;;
4468;SDS011;2247;42.666;23.292;2024-01-30T13:11:18;7.50;;;3.37;;
4468;SDS011;2247;42.666;23.292;2024-01-30T13:13:45;5.23;;;3.20;;
4468;SDS011;2247;42.666;23.292;2024-01-30T13:16:14;3.53;;;2.90;;
4468;SDS011;2247;42.666;23.292;2024-01-30T13:18:41;5.10;;;3.27;;
4468;SDS011;2247;42.666;23.292;2024-01-30T13:21:08;3.50;;;2.90;;
4468;SDS011;2247;42.666;23.292;2024-01-30T13:23:35;6.47;;;3.20;;
4468;SDS011;2247;42.666;23.292;2024-01-30T13:26:01;5.00;;;3.30;;
4468;SDS011;2247;42.666;23.292;2024-01-30T13:28:28;5.67;;;3.33;;
4468;SDS011;2247;42.666;23.292;2024-01-30T13:30:55;4.07;;;3.13;;
4468;SDS011;2247;42.666;23.292;2024-01-30T13:33:26;6.77;;;3.37;;
4468;SDS011;2247;42.666;23.292;2024-01-30T13:35:53;8.87;;;3.20;;
4468;SDS011;2247;42.666;23.292;2024-01-30T13:38:20;3.57;;;3.00;;
4468;SDS011;2247;42.666;23.292;2024-01-30T13:40:47;4.23;;;3.23;;
4468;SDS011;2247;42.666;23.292;2024-01-30T13:43:14;7.80;;;3.17;;
4468;SDS011;2247;42.666;23.292;2024-01-30T13:45:41;4.80;;;3.30;;
4468;SDS011;2247;42.666;23.292;2024-01-30T13:48:08;6.40;;;3.80;;
4468;SDS011;2247;42.666;23.292;2024-01-30T13:50:36;4.70;;;3.47;;
4468;SDS011;2247;42.666;23.292;2024-01-30T13:53:03;4.03;;;3.50;;
4468;SDS011;2247;42.666;23.292;2024-01-30T13:55:30;5.43;;;3.33;;
4468;SDS011;2247;42.666;23.292;2024-01-30T13:57:57;3.60;;;2.80;;
4468;SDS011;2247;42.666;23.292;2024-01-30T14:00:24;4.10;;;3.30;;
4468;SDS011;2247;42.666;23.292;2024-01-30T14:02:51;5.30;;;3.70;;
4468;SDS011;2247;42.666;23.292;2024-01-30T14:05:19;5.67;;;4.10;;
4468;SDS011;2247;42.666;23.292;2024-01-30T14:07:48;6.03;;;4.03;;
4468;SDS011;2247;42.666;23.292;2024-01-30T14:10:16;5.57;;;3.47;;
4468;SDS011;2247;42.666;23.292;2024-01-30T14:12:43;5.07;;;3.43;;
4468;SDS011;2247;42.666;23.292;2024-01-30T14:15:10;3.80;;;3.20;;
4468;SDS011;2247;42.666;23.292;2024-01-30T14:17:38;7.10;;;3.87;;
4468;SDS011;2247;42.666;23.292;2024-01-30T14:20:05;5.37;;;3.43;;
4468;SDS011;2247;42.666;23.292;2024-01-30T14:22:34;4.50;;;3.40;;
4468;SDS011;2247;42.666;23.292;2024-01-30T14:25:02;5.23;;;3.20;;
4468;SDS011;2247;42.666;23.292;2024-01-30T14:27:30;5.17;;;3.80;;
4468;SDS011;2247;42.666;23.292;2024-01-30T14:29:57;6.07;;;3.30;;
4468;SDS011;2247;42.666;23.292;2024-01-30T14:32:24;4.90;;;3.50;;
4468;SDS011;2247;42.666;23.292;2024-01-30T14:34:51;7.17;;;3.50;;
4468;SDS011;2247;42.666;23.292;2024-01-30T14:37:18;6.07;;;3.53;;
4468;SDS011;2247;42.666;23.292;2024-01-30T14:39:46;9.03;;;3.70;;
4468;SDS011;2247;42.666;23.292;2024-01-30T14:42:15;4.87;;;3.60;;
4468;SDS011;2247;42.666;23.292;2024-01-30T14:44:42;3.43;;;2.97;;
4468;SDS011;2247;42.666;23.292;2024-01-30T14:47:09;4.57;;;3.47;;
4468;SDS011;2247;42.666;23.292;2024-01-30T14:49:38;5.93;;;3.70;;
4468;SDS011;2247;42.666;23.292;2024-01-30T14:52:05;5.83;;;3.73;;
4468;SDS011;2247;42.666;23.292;2024-01-30T14:54:33;5.60;;;3.60;;
4468;SDS011;2247;42.666;23.292;2024-01-30T14:57:00;7.30;;;3.70;;
4468;SDS011;2247;42.666;23.292;2024-01-30T14:59:29;8.03;;;3.50;;
4468;SDS011;2247;42.666;23.292;2024-01-30T15:01:56;4.33;;;3.13;;
4468;SDS011;2247;42.666;23.292;2024-01-30T15:04:23;4.37;;;3.10;;
4468;SDS011;2247;42.666;23.292;2024-01-30T15:06:50;4.33;;;3.50;;